createdAt,value
2023-03-07T00:00:18.975Z,60.93
2023-03-07T00:02:50.462Z,61.59
2023-03-07T00:05:18.540Z,62.54
2023-03-07T00:07:46.392Z,62.86
2023-03-07T00:10:14.335Z,62.29
2023-03-07T00:12:42.109Z,61.87
2023-03-07T00:15:10.451Z,62.06
2023-03-07T00:17:38.991Z,62.10
2023-03-07T00:20:07.751Z,62.24
2023-03-07T00:22:35.837Z,61.44
2023-03-07T00:25:04.458Z,62.13
2023-03-07T00:27:32.315Z,62.45
2023-03-07T00:30:00.398Z,62.12
2023-03-07T00:32:28.436Z,62.21
2023-03-07T00:34:57.621Z,62.16
2023-03-07T00:37:25.378Z,62.70
2023-03-07T00:39:53.120Z,62.62
2023-03-07T00:42:20.897Z,63.54
2023-03-07T00:44:48.618Z,63.32
2023-03-07T00:47:16.410Z,63.23
2023-03-07T00:49:44.181Z,62.98
2023-03-07T00:52:12.022Z,62.37
2023-03-07T00:54:39.900Z,63.33
2023-03-07T00:57:07.704Z,63.14
2023-03-07T00:59:35.796Z,63.20
2023-03-07T01:02:03.589Z,63.52
2023-03-07T01:04:31.621Z,63.67
2023-03-07T01:06:59.394Z,62.66
2023-03-07T01:09:27.160Z,63.24
2023-03-07T01:12:07.460Z,63.59
2023-03-07T01:14:35.131Z,63.31
2023-03-07T01:17:04.448Z,63.31
2023-03-07T01:19:32.230Z,63.81
2023-03-07T01:21:59.890Z,64.06
2023-03-07T01:24:27.746Z,63.84
2023-03-07T01:26:55.842Z,63.72
2023-03-07T01:29:24.852Z,63.67
2023-03-07T01:31:53.247Z,63.35
2023-03-07T01:34:21.341Z,63.52
2023-03-07T01:36:51.144Z,63.52
2023-03-07T01:39:19.012Z,63.45
2023-03-07T01:42:08.053Z,63.74
2023-03-07T01:44:54.771Z,63.52
2023-03-07T01:47:23.354Z,64.15
2023-03-07T01:49:54.661Z,63.59
2023-03-07T01:52:25.617Z,64.49
2023-03-07T01:55:03.563Z,65.54
2023-03-07T01:57:37.646Z,65.79
2023-03-07T02:00:09.099Z,65.77
2023-03-07T02:02:44.466Z,65.65
2023-03-07T02:05:19.966Z,66.07
2023-03-07T02:07:48.906Z,66.34
2023-03-07T02:10:20.272Z,67.05
2023-03-07T02:12:48.520Z,67.15
2023-03-07T02:15:16.943Z,67.36
2023-03-07T02:17:45.106Z,68.00
2023-03-07T02:20:31.939Z,67.96
2023-03-07T02:22:59.718Z,68.03
2023-03-07T02:25:27.404Z,67.96
2023-03-07T02:27:57.488Z,67.74
2023-03-07T02:30:27.026Z,67.86
2023-03-07T02:32:55.734Z,67.49
2023-03-07T02:35:24.856Z,67.49
2023-03-07T02:37:57.650Z,67.73
2023-03-07T02:40:27.721Z,67.15
2023-03-07T02:42:57.508Z,67.72
2023-03-07T02:45:25.302Z,68.12
2023-03-07T02:47:53.013Z,68.00
2023-03-07T02:50:20.822Z,68.47
2023-03-07T02:52:52.481Z,68.23
2023-03-07T02:55:20.249Z,68.58
2023-03-07T02:57:54.200Z,67.77
2023-03-07T03:00:22.383Z,67.48
2023-03-07T03:02:50.131Z,67.29
2023-03-07T03:05:20.380Z,67.80
2023-03-07T03:07:48.791Z,67.32
2023-03-07T03:10:17.381Z,67.55
2023-03-07T03:12:45.234Z,67.38
2023-03-07T03:15:13.277Z,67.81
2023-03-07T03:17:41.295Z,68.06
2023-03-07T03:20:12.145Z,68.33
2023-03-07T03:22:40.789Z,68.76
2023-03-07T03:25:10.942Z,68.93
2023-03-07T03:27:40.528Z,69.09
2023-03-07T03:30:09.574Z,69.34
2023-03-07T03:32:38.276Z,69.20
2023-03-07T03:35:07.347Z,68.56
2023-03-07T03:37:35.268Z,68.36
2023-03-07T03:40:14.647Z,67.73
2023-03-07T03:42:44.297Z,68.54
2023-03-07T03:45:15.166Z,68.86
2023-03-07T03:47:43.188Z,67.99
2023-03-07T03:50:11.469Z,67.51
2023-03-07T03:52:40.095Z,67.19
2023-03-07T03:55:08.022Z,67.37
2023-03-07T03:57:35.738Z,67.75
2023-03-07T04:00:05.728Z,67.42
2023-03-07T04:02:40.324Z,67.85
2023-03-07T04:05:11.969Z,67.79
2023-03-07T04:07:39.646Z,68.31
2023-03-07T04:10:07.812Z,68.00
2023-03-07T04:12:35.967Z,68.19
2023-03-07T04:15:06.262Z,68.22
2023-03-07T04:17:34.223Z,68.35
2023-03-07T04:20:01.993Z,68.66
2023-03-07T04:22:30.300Z,68.76
2023-03-07T04:24:58.043Z,69.32
2023-03-07T04:27:26.976Z,69.32
2023-03-07T04:29:56.172Z,69.79
2023-03-07T04:32:23.993Z,69.44
2023-03-07T04:34:51.901Z,69.72
2023-03-07T04:37:19.498Z,69.14
2023-03-07T04:39:47.081Z,68.65
2023-03-07T04:42:15.251Z,68.54
2023-03-07T04:44:42.992Z,69.24
2023-03-07T04:47:10.701Z,68.85
2023-03-07T04:49:39.424Z,69.65
2023-03-07T04:52:08.214Z,69.63
2023-03-07T04:54:36.711Z,69.55
2023-03-07T04:57:04.756Z,69.92
2023-03-07T04:59:32.713Z,69.97
2023-03-07T05:02:01.008Z,69.38
2023-03-07T05:04:31.396Z,70.43
2023-03-07T05:06:59.330Z,71.16
2023-03-07T05:09:27.264Z,71.40
2023-03-07T05:11:55.142Z,71.00
2023-03-07T05:14:23.018Z,71.35
2023-03-07T05:16:50.707Z,71.77
2023-03-07T05:19:19.947Z,70.59
2023-03-07T05:21:49.415Z,71.10
2023-03-07T05:24:18.231Z,70.49
2023-03-07T05:26:45.968Z,70.63
2023-03-07T05:29:13.592Z,69.09
2023-03-07T05:31:41.217Z,70.17
2023-03-07T05:34:11.056Z,70.21
2023-03-07T05:36:40.138Z,71.23
2023-03-07T05:39:09.357Z,71.27
2023-03-07T05:41:37.053Z,71.35
2023-03-07T05:44:05.105Z,72.42
2023-03-07T05:46:33.036Z,71.53
2023-03-07T05:49:01.103Z,70.94
2023-03-07T05:51:28.847Z,71.89
2023-03-07T05:53:56.577Z,72.15
2023-03-07T05:56:24.477Z,72.50
2023-03-07T05:58:52.270Z,71.82
2023-03-07T06:01:19.997Z,71.29
2023-03-07T06:03:48.672Z,70.48
2023-03-07T06:06:16.370Z,69.98
2023-03-07T06:08:44.376Z,70.62
2023-03-07T06:11:12.294Z,70.71
2023-03-07T06:13:40.427Z,71.30
2023-03-07T06:16:08.171Z,71.09
2023-03-07T06:18:38.907Z,70.57
2023-03-07T06:21:07.874Z,70.84
2023-03-07T06:23:40.673Z,69.97
2023-03-07T06:26:13.222Z,69.63
2023-03-07T06:28:43.178Z,69.78
2023-03-07T06:31:14.636Z,71.10
2023-03-07T06:33:42.905Z,70.58
2023-03-07T06:36:12.820Z,71.27
2023-03-07T06:38:42.459Z,69.88
2023-03-07T06:41:10.214Z,69.32
2023-03-07T06:43:38.554Z,68.53
2023-03-07T06:46:06.473Z,69.32
2023-03-07T06:48:38.713Z,68.96
2023-03-07T06:51:09.554Z,68.54
2023-03-07T06:53:39.628Z,68.88
2023-03-07T06:56:07.338Z,69.22
2023-03-07T06:58:36.198Z,67.79
2023-03-07T07:01:04.759Z,68.65
2023-03-07T07:03:35.267Z,69.08
2023-03-07T07:06:03.999Z,68.53
2023-03-07T07:08:32.070Z,68.43
2023-03-07T07:10:59.685Z,66.97
2023-03-07T07:13:28.417Z,66.76
2023-03-07T07:15:56.189Z,66.12
2023-03-07T07:18:25.707Z,66.32
2023-03-07T07:20:55.859Z,66.34
2023-03-07T07:23:24.220Z,66.12
2023-03-07T07:25:51.917Z,66.43
2023-03-07T07:28:19.667Z,64.97
2023-03-07T07:30:47.460Z,64.26
2023-03-07T07:33:17.231Z,64.42
2023-03-07T07:35:48.497Z,64.38
2023-03-07T07:38:16.597Z,63.92
2023-03-07T07:40:45.501Z,63.82
2023-03-07T07:43:15.556Z,63.47
2023-03-07T07:45:48.387Z,62.40
2023-03-07T07:48:19.661Z,61.48
2023-03-07T07:50:47.935Z,60.92
2023-03-07T07:53:18.002Z,60.98
2023-03-07T07:55:49.089Z,60.17
2023-03-07T07:58:17.859Z,59.86
2023-03-07T08:00:46.657Z,59.76
2023-03-07T08:03:14.334Z,59.36
2023-03-07T08:05:48.414Z,58.79
2023-03-07T08:08:17.109Z,57.61
2023-03-07T08:10:48.078Z,58.36
2023-03-07T08:13:16.967Z,58.18
2023-03-07T08:15:44.620Z,58.61
2023-03-07T08:18:12.586Z,58.58
2023-03-07T08:20:41.557Z,59.15
2023-03-07T08:23:09.296Z,58.17
2023-03-07T08:25:36.916Z,58.25
2023-03-07T08:28:05.695Z,58.41
2023-03-07T08:30:34.356Z,58.46
2023-03-07T08:33:01.946Z,58.78
2023-03-07T08:35:31.967Z,57.81
2023-03-07T08:38:00.837Z,55.94
2023-03-07T08:40:29.519Z,55.11
2023-03-07T08:42:58.849Z,54.34
2023-03-07T08:45:27.084Z,54.13
2023-03-07T08:47:55.303Z,54.11
2023-03-07T08:50:24.048Z,53.59
2023-03-07T08:52:52.064Z,54.15
2023-03-07T08:55:20.537Z,54.94
2023-03-07T08:57:48.225Z,54.55
2023-03-07T09:00:16.043Z,53.84
2023-03-07T09:02:43.780Z,54.50
2023-03-07T09:05:11.397Z,54.52
2023-03-07T09:07:39.035Z,55.29
2023-03-07T09:10:06.874Z,56.80
2023-03-07T09:12:36.505Z,57.47
2023-03-07T09:15:04.275Z,57.66
2023-03-07T09:17:31.823Z,56.02
2023-03-07T09:19:59.793Z,56.13
2023-03-07T09:22:27.762Z,54.12
2023-03-07T09:24:55.366Z,55.37
2023-03-07T09:27:23.101Z,54.79
2023-03-07T09:29:50.727Z,52.05
2023-03-07T09:32:18.359Z,52.47
2023-03-07T09:34:45.956Z,51.50
2023-03-07T09:37:13.548Z,50.12
2023-03-07T09:39:41.108Z,50.29
2023-03-07T09:42:19.559Z,50.74
2023-03-07T09:45:16.559Z,50.53
2023-03-07T09:47:57.590Z,49.28
2023-03-07T09:50:34.708Z,48.13
2023-03-07T09:53:04.061Z,49.08
2023-03-07T09:55:32.332Z,46.80
2023-03-07T09:58:01.165Z,45.89
2023-03-07T10:00:31.787Z,44.04
2023-03-07T10:03:18.636Z,43.73
2023-03-07T10:05:50.425Z,44.10
2023-03-07T10:08:29.796Z,44.13
2023-03-07T10:11:06.927Z,44.71
2023-03-07T10:13:37.486Z,43.38
2023-03-07T10:16:10.712Z,43.32
2023-03-07T10:18:46.138Z,43.10
2023-03-07T10:21:22.912Z,42.54
2023-03-07T10:24:11.781Z,41.89
2023-03-07T10:26:43.298Z,41.95
2023-03-07T10:29:14.394Z,41.88
2023-03-07T10:31:45.042Z,42.13
2023-03-07T10:34:32.948Z,41.81
2023-03-07T10:37:09.076Z,40.36
2023-03-07T10:39:43.838Z,40.15
2023-03-07T10:42:12.505Z,39.37
2023-03-07T10:44:40.671Z,38.51
2023-03-07T10:47:28.271Z,39.07
2023-03-07T10:50:08.412Z,38.47
2023-03-07T10:52:40.064Z,39.81
2023-03-07T10:55:26.078Z,38.24
2023-03-07T10:57:53.818Z,39.49
2023-03-07T11:00:21.676Z,39.34
2023-03-07T11:02:49.324Z,37.96
2023-03-07T11:05:31.391Z,36.78
2023-03-07T11:07:59.816Z,36.05
2023-03-07T11:10:33.549Z,33.64
2023-03-07T11:13:07.555Z,34.56
2023-03-07T11:15:35.254Z,34.36
2023-03-07T11:18:02.848Z,34.05
2023-03-07T11:20:46.778Z,34.31
2023-03-07T11:23:26.363Z,33.52
2023-03-07T11:25:55.557Z,32.93
2023-03-07T11:28:26.024Z,34.03
2023-03-07T11:30:57.363Z,33.02
2023-03-07T11:33:30.815Z,33.86
2023-03-07T11:36:03.995Z,32.53
2023-03-07T11:38:39.100Z,32.34
2023-03-07T11:41:25.578Z,31.02
2023-03-07T11:44:10.805Z,32.98
2023-03-07T11:47:10.524Z,33.31
2023-03-07T11:49:41.160Z,35.07
2023-03-07T11:52:27.466Z,34.84
2023-03-07T11:55:27.634Z,34.61
2023-03-07T11:57:58.743Z,35.51
2023-03-07T12:00:29.399Z,34.75
2023-03-07T12:02:59.898Z,34.26
2023-03-07T12:05:43.130Z,35.20
2023-03-07T12:08:29.732Z,35.91
2023-03-07T12:11:16.622Z,36.11
2023-03-07T12:13:44.318Z,36.08
2023-03-07T12:16:16.762Z,36.39
2023-03-07T12:18:58.188Z,36.22
2023-03-07T12:21:43.140Z,34.86
2023-03-07T12:24:20.493Z,33.04
2023-03-07T12:26:59.331Z,31.54
2023-03-07T12:29:26.990Z,31.70
2023-03-07T12:31:59.340Z,31.58
2023-03-07T12:34:45.725Z,32.32
2023-03-07T12:37:25.531Z,34.38
2023-03-07T12:39:55.474Z,34.62
2023-03-07T12:42:26.197Z,35.44
2023-03-07T12:45:06.804Z,35.79
2023-03-07T12:47:43.352Z,35.72
2023-03-07T12:50:29.636Z,35.05
2023-03-07T12:53:04.349Z,35.49
2023-03-07T12:55:48.905Z,35.21
2023-03-07T12:58:16.726Z,34.00
2023-03-07T13:00:48.413Z,32.81
2023-03-07T13:03:22.972Z,31.16
2023-03-07T13:05:51.122Z,28.92
2023-03-07T13:08:23.904Z,30.22
2023-03-07T13:10:52.007Z,30.51
2023-03-07T13:13:38.553Z,28.83
2023-03-07T13:16:06.700Z,28.17
2023-03-07T13:18:34.472Z,28.37
2023-03-07T13:21:08.092Z,30.56
2023-03-07T13:23:36.356Z,32.01
2023-03-07T13:26:10.822Z,31.03
2023-03-07T13:28:40.786Z,31.25
2023-03-07T13:31:17.928Z,32.16
2023-03-07T13:33:45.578Z,33.04
2023-03-07T13:36:33.179Z,33.23
2023-03-07T13:39:01.058Z,32.52
2023-03-07T13:41:51.046Z,32.25
2023-03-07T13:44:27.639Z,31.13
2023-03-07T13:46:59.088Z,29.06
2023-03-07T13:49:40.561Z,28.17
2023-03-07T13:52:20.691Z,26.21
2023-03-07T13:54:49.928Z,26.24
2023-03-07T13:57:19.137Z,26.69
2023-03-07T13:59:50.300Z,27.77
2023-03-07T14:02:18.537Z,27.63
2023-03-07T14:04:54.566Z,27.09
2023-03-07T14:07:22.259Z,27.16
2023-03-07T14:09:52.048Z,27.52
2023-03-07T14:12:26.697Z,29.16
2023-03-07T14:15:03.424Z,31.34
2023-03-07T14:18:00.573Z,33.06
2023-03-07T14:20:46.560Z,34.20
2023-03-07T14:23:33.125Z,34.72
2023-03-07T14:26:16.358Z,34.86
2023-03-07T14:28:48.377Z,33.81
2023-03-07T14:31:30.555Z,31.86
2023-03-07T14:33:58.965Z,32.26
2023-03-07T14:36:29.546Z,32.97
2023-03-07T14:38:58.575Z,33.67
2023-03-07T14:41:36.798Z,34.13
2023-03-07T14:44:22.899Z,35.00
2023-03-07T14:47:01.684Z,35.70
2023-03-07T14:49:41.370Z,37.09
2023-03-07T14:52:21.327Z,37.44
2023-03-07T14:54:57.143Z,37.55
2023-03-07T14:57:30.050Z,36.63
2023-03-07T15:00:15.656Z,36.33
2023-03-07T15:03:08.534Z,37.63
2023-03-07T15:05:50.144Z,38.13
2023-03-07T15:08:31.441Z,37.98
2023-03-07T15:11:08.081Z,37.89
2023-03-07T15:13:45.480Z,38.52
2023-03-07T15:16:18.530Z,38.68
2023-03-07T15:18:52.322Z,39.03
2023-03-07T15:21:21.553Z,39.57
2023-03-07T15:23:54.082Z,39.98
2023-03-07T15:26:23.416Z,40.04
2023-03-07T15:28:58.116Z,40.24
2023-03-07T15:31:25.902Z,40.39
2023-03-07T15:33:53.642Z,39.79
2023-03-07T15:36:25.763Z,40.35
2023-03-07T15:38:54.153Z,40.14
2023-03-07T15:41:25.879Z,40.25
2023-03-07T15:44:11.792Z,40.88
2023-03-07T15:46:42.639Z,41.22
2023-03-07T15:49:22.157Z,41.13
2023-03-07T15:51:54.608Z,41.09
2023-03-07T15:54:28.256Z,41.35
2023-03-07T15:56:59.738Z,41.93
2023-03-07T15:59:38.698Z,41.42
2023-03-07T16:02:25.209Z,41.62
2023-03-07T16:04:54.007Z,42.26
2023-03-07T16:07:21.696Z,42.69
2023-03-07T16:09:49.368Z,43.00
2023-03-07T16:12:18.854Z,43.11
2023-03-07T16:14:50.466Z,43.28
2023-03-07T16:17:21.388Z,42.79
2023-03-07T16:19:49.224Z,42.79
2023-03-07T16:22:17.986Z,42.34
2023-03-07T16:24:46.048Z,42.98
2023-03-07T16:27:18.575Z,43.02
2023-03-07T16:29:46.900Z,43.33
2023-03-07T16:32:16.889Z,43.60
2023-03-07T16:34:44.780Z,43.68
2023-03-07T16:37:13.536Z,43.22
2023-03-07T16:39:41.501Z,43.17
2023-03-07T16:42:22.928Z,43.08
2023-03-07T16:44:51.569Z,42.99
2023-03-07T16:47:19.308Z,41.10
2023-03-07T16:49:47.039Z,40.13
2023-03-07T16:52:14.725Z,39.53
2023-03-07T16:54:42.742Z,38.95
2023-03-07T16:57:13.129Z,38.95
2023-03-07T16:59:44.332Z,38.67
2023-03-07T17:02:15.101Z,38.85
2023-03-07T17:04:44.342Z,38.85
2023-03-07T17:07:16.497Z,38.74
2023-03-07T17:09:44.263Z,39.08
2023-03-07T17:12:12.243Z,39.35
2023-03-07T17:14:40.583Z,39.09
2023-03-07T17:17:11.570Z,39.28
2023-03-07T17:19:39.227Z,39.61
2023-03-07T17:22:07.048Z,39.49
2023-03-07T17:24:34.748Z,39.62
2023-03-07T17:27:05.565Z,39.53
2023-03-07T17:29:38.843Z,39.77
2023-03-07T17:32:06.713Z,39.81
2023-03-07T17:34:35.507Z,40.07
2023-03-07T17:37:03.960Z,40.04
2023-03-07T17:39:32.234Z,40.30
2023-03-07T17:42:00.752Z,40.68
2023-03-07T17:44:28.676Z,40.45
2023-03-07T17:46:56.635Z,40.84
2023-03-07T17:49:26.333Z,40.69
2023-03-07T17:51:53.965Z,41.16
2023-03-07T17:54:21.720Z,41.31
2023-03-07T17:56:49.554Z,41.74
2023-03-07T17:59:17.453Z,42.01
2023-03-07T18:01:45.132Z,42.27
2023-03-07T18:04:12.858Z,42.44
2023-03-07T18:06:41.084Z,42.82
2023-03-07T18:09:09.420Z,42.83
2023-03-07T18:11:37.205Z,43.29
2023-03-07T18:14:04.903Z,43.36
2023-03-07T18:16:32.675Z,43.24
2023-03-07T18:19:03.492Z,43.34
2023-03-07T18:21:32.516Z,43.41
2023-03-07T18:24:00.158Z,43.78
2023-03-07T18:26:27.886Z,43.83
2023-03-07T18:28:56.652Z,44.03
2023-03-07T18:31:25.386Z,43.54
2023-03-07T18:33:53.326Z,43.73
2023-03-07T18:36:22.278Z,43.69
2023-03-07T18:38:50.545Z,43.79
2023-03-07T18:41:20.144Z,43.92
2023-03-07T18:43:47.946Z,44.29
2023-03-07T18:46:19.682Z,44.42
2023-03-07T18:48:47.717Z,44.01
2023-03-07T18:51:16.567Z,44.35
2023-03-07T18:53:44.330Z,44.41
2023-03-07T18:56:13.560Z,44.78
2023-03-07T18:58:41.645Z,45.44
2023-03-07T19:01:15.280Z,45.61
2023-03-07T19:03:43.456Z,45.54
2023-03-07T19:06:11.452Z,45.73
2023-03-07T19:08:39.221Z,45.66
2023-03-07T19:11:08.575Z,46.15
2023-03-07T19:13:36.821Z,46.29
2023-03-07T19:16:15.398Z,46.71
2023-03-07T19:18:43.692Z,46.77
2023-03-07T19:21:13.052Z,46.79
2023-03-07T19:23:40.813Z,47.08
2023-03-07T19:26:10.331Z,47.41
2023-03-07T19:28:38.371Z,47.29
2023-03-07T19:31:10.477Z,47.34
2023-03-07T19:33:38.493Z,47.54
2023-03-07T19:36:11.032Z,47.72
2023-03-07T19:38:38.916Z,48.04
2023-03-07T19:41:09.992Z,48.23
2023-03-07T19:43:37.715Z,48.23
2023-03-07T19:46:06.571Z,48.57
2023-03-07T19:48:34.676Z,48.39
2023-03-07T19:51:02.667Z,48.45
2023-03-07T19:53:30.754Z,48.66
2023-03-07T19:56:08.099Z,49.11
2023-03-07T19:58:37.269Z,49.09
2023-03-07T20:01:09.513Z,49.51
2023-03-07T20:03:37.332Z,48.99
2023-03-07T20:06:05.818Z,49.12
2023-03-07T20:08:33.892Z,49.37
2023-03-07T20:11:10.367Z,49.24
2023-03-07T20:13:38.537Z,49.84
2023-03-07T20:16:09.969Z,49.61
2023-03-07T20:18:38.545Z,50.04
2023-03-07T20:21:10.852Z,49.81
2023-03-07T20:23:38.702Z,50.09
2023-03-07T20:26:14.540Z,50.37
2023-03-07T20:28:42.415Z,50.78
2023-03-07T20:31:11.422Z,51.42
2023-03-07T20:33:40.217Z,51.33
2023-03-07T20:36:09.252Z,51.31
2023-03-07T20:38:38.011Z,51.80
2023-03-07T20:41:07.393Z,51.21
2023-03-07T20:43:35.124Z,51.76
2023-03-07T20:46:07.813Z,51.89
2023-03-07T20:48:35.994Z,51.88
2023-03-07T20:51:05.410Z,51.99
2023-03-07T20:53:33.596Z,52.05
2023-03-07T20:56:02.147Z,51.98
2023-03-07T20:58:30.270Z,52.50
2023-03-07T21:00:58.989Z,52.68
2023-03-07T21:03:26.974Z,52.68
2023-03-07T21:05:58.550Z,52.57
2023-03-07T21:08:26.998Z,52.93
2023-03-07T21:11:18.263Z,52.86
2023-03-07T21:13:47.091Z,52.78
2023-03-07T21:16:19.073Z,52.40
2023-03-07T21:18:46.834Z,52.33
2023-03-07T21:21:15.891Z,52.46
2023-03-07T21:23:43.619Z,52.31
2023-03-07T21:26:13.234Z,52.60
2023-03-07T21:28:41.303Z,52.47
2023-03-07T21:31:15.131Z,52.67
2023-03-07T21:33:44.128Z,52.46
2023-03-07T21:36:14.385Z,52.57
2023-03-07T21:38:42.644Z,52.85
2023-03-07T21:41:10.372Z,52.72
2023-03-07T21:43:38.073Z,52.56
2023-03-07T21:46:06.998Z,52.51
2023-03-07T21:48:34.663Z,52.41
2023-03-07T21:51:03.149Z,52.67
2023-03-07T21:53:30.891Z,52.97
2023-03-07T21:56:00.580Z,53.14
2023-03-07T21:58:29.555Z,52.67
2023-03-07T22:00:57.593Z,52.31
2023-03-07T22:03:26.285Z,52.51
2023-03-07T22:05:56.296Z,52.24
2023-03-07T22:08:25.009Z,52.40
2023-03-07T22:10:57.190Z,52.16
2023-03-07T22:13:24.870Z,52.17
2023-03-07T22:15:56.452Z,52.34
2023-03-07T22:18:24.470Z,51.88
2023-03-07T22:20:52.134Z,52.16
2023-03-07T22:23:19.784Z,52.79
2023-03-07T22:25:47.388Z,52.63
2023-03-07T22:28:19.558Z,52.84
2023-03-07T22:30:47.536Z,52.85
2023-03-07T22:33:15.605Z,52.69
2023-03-07T22:35:43.284Z,52.79
2023-03-07T22:38:10.918Z,52.82
2023-03-07T22:40:39.633Z,52.51
2023-03-07T22:43:07.314Z,52.70
2023-03-07T22:45:34.970Z,53.28
2023-03-07T22:48:02.889Z,53.01
2023-03-07T22:50:30.973Z,52.42
2023-03-07T22:52:58.745Z,52.87
2023-03-07T22:55:26.492Z,52.99
2023-03-07T22:57:54.175Z,53.41
2023-03-07T23:00:21.951Z,53.11
2023-03-07T23:02:49.582Z,53.09
2023-03-07T23:05:17.333Z,53.09
2023-03-07T23:07:47.190Z,53.24
2023-03-07T23:10:16.359Z,53.53
2023-03-07T23:12:44.410Z,53.77
2023-03-07T23:15:12.187Z,53.48
2023-03-07T23:17:40.003Z,53.64
2023-03-07T23:20:08.491Z,54.17
2023-03-07T23:22:36.192Z,54.27
2023-03-07T23:25:05.332Z,54.37
2023-03-07T23:27:33.380Z,54.50
2023-03-07T23:30:01.073Z,54.26
2023-03-07T23:32:30.712Z,54.44
2023-03-07T23:34:58.422Z,54.13
2023-03-07T23:37:26.054Z,54.22
2023-03-07T23:39:53.671Z,54.63
2023-03-07T23:42:21.440Z,55.16
2023-03-07T23:44:49.230Z,55.25
2023-03-07T23:47:17.097Z,55.14
2023-03-07T23:49:44.779Z,55.53
2023-03-07T23:52:12.349Z,55.78
2023-03-07T23:54:42.281Z,56.00
2023-03-07T23:57:09.912Z,56.12
2023-03-07T23:59:37.569Z,56.59
